createdAt,value
2018-08-19T00:00:51.903Z,53.31
2018-08-19T00:03:20.810Z,55.13
2018-08-19T00:05:49.893Z,57.94
2018-08-19T00:08:18.838Z,55.98
2018-08-19T00:11:06.164Z,52.64
2018-08-19T00:13:35.942Z,57.69
2018-08-19T00:16:04.996Z,54.19
2018-08-19T00:18:35.405Z,52.47
2018-08-19T00:21:07.641Z,55.35
2018-08-19T00:23:41.733Z,57.45
2018-08-19T00:26:10.605Z,57.72
2018-08-19T00:28:39.408Z,58.39
2018-08-19T00:31:08.268Z,52.60
2018-08-19T00:33:37.209Z,51.68
2018-08-19T00:36:25.799Z,55.27
2018-08-19T00:38:55.181Z,52.75
2018-08-19T00:41:24.017Z,58.42
2018-08-19T00:43:52.839Z,58.33
2018-08-19T00:46:23.724Z,53.91
2018-08-19T00:48:52.887Z,55.38
2018-08-19T00:51:21.850Z,52.42
2018-08-19T00:53:50.738Z,53.54
2018-08-19T00:56:19.588Z,55.89
2018-08-19T00:58:48.407Z,54.05
2018-08-19T01:01:29.650Z,53.60
2018-08-19T01:03:59.334Z,55.32
2018-08-19T01:06:28.457Z,56.45
2018-08-19T01:08:58.282Z,57.72
2018-08-19T01:11:33.805Z,54.04
2018-08-19T01:14:03.236Z,56.41
2018-08-19T01:16:32.113Z,53.33
2018-08-19T01:19:02.128Z,55.12
2018-08-19T01:21:32.281Z,54.91
2018-08-19T01:24:02.468Z,58.29
2018-08-19T01:26:35.807Z,57.98
2018-08-19T01:29:05.728Z,56.07
2018-08-19T01:31:34.633Z,56.90
2018-08-19T01:34:07.306Z,60.07
2018-08-19T01:36:36.338Z,52.91
2018-08-19T01:39:08.117Z,52.90
2018-08-19T01:41:37.716Z,53.85
2018-08-19T01:44:14.240Z,58.91
2018-08-19T01:46:52.189Z,52.79
2018-08-19T01:49:20.976Z,51.96
2018-08-19T01:51:49.752Z,52.43
2018-08-19T01:54:22.618Z,52.47
2018-08-19T01:57:00.196Z,53.74
2018-08-19T01:59:32.193Z,56.60
2018-08-19T02:02:06.762Z,56.36
2018-08-19T02:04:43.350Z,54.87
2018-08-19T02:07:12.401Z,60.64
2018-08-19T02:09:56.359Z,59.75
2018-08-19T02:12:27.933Z,63.05
2018-08-19T02:14:56.769Z,56.62
2018-08-19T02:17:25.609Z,60.20
2018-08-19T02:19:54.431Z,58.84
2018-08-19T02:22:23.275Z,60.23
2018-08-19T02:24:54.890Z,63.69
2018-08-19T02:27:23.933Z,58.74
2018-08-19T02:29:53.843Z,60.99
2018-08-19T02:32:29.249Z,57.53
2018-08-19T02:34:58.151Z,62.05
2018-08-19T02:37:27.068Z,63.13
2018-08-19T02:39:55.973Z,63.00
2018-08-19T02:42:29.332Z,64.48
2018-08-19T02:45:05.472Z,64.62
2018-08-19T02:47:34.929Z,63.88
2018-08-19T02:50:04.240Z,62.27
2018-08-19T02:52:36.721Z,64.54
2018-08-19T02:55:07.245Z,64.72
2018-08-19T02:57:38.393Z,62.32
2018-08-19T03:00:09.370Z,64.05
2018-08-19T03:02:40.090Z,63.87
2018-08-19T03:05:13.761Z,60.60
2018-08-19T03:07:42.890Z,61.03
2018-08-19T03:10:14.186Z,64.09
2018-08-19T03:12:43.402Z,61.01
2018-08-19T03:15:13.877Z,59.75
2018-08-19T03:17:43.405Z,61.23
2018-08-19T03:20:13.688Z,61.29
2018-08-19T03:22:42.782Z,62.48
2018-08-19T03:25:12.108Z,62.34
2018-08-19T03:27:40.964Z,63.42
2018-08-19T03:30:12.317Z,62.32
2018-08-19T03:32:46.954Z,64.20
2018-08-19T03:35:16.744Z,63.21
2018-08-19T03:37:45.785Z,63.17
2018-08-19T03:40:14.850Z,60.68
2018-08-19T03:42:43.682Z,59.97
2018-08-19T03:45:17.669Z,61.57
2018-08-19T03:47:47.079Z,61.76
2018-08-19T03:50:25.860Z,61.00
2018-08-19T03:52:55.580Z,61.74
2018-08-19T03:55:30.695Z,60.70
2018-08-19T03:58:03.598Z,61.28
2018-08-19T04:00:35.732Z,60.12
2018-08-19T04:03:15.116Z,61.38
2018-08-19T04:05:50.615Z,60.22
2018-08-19T04:08:19.487Z,61.38
2018-08-19T04:10:49.052Z,60.97
2018-08-19T04:13:30.879Z,59.21
2018-08-19T04:16:03.835Z,58.43
2018-08-19T04:18:36.969Z,59.03
2018-08-19T04:21:09.919Z,59.29
2018-08-19T04:23:41.272Z,60.89
2018-08-19T04:26:10.209Z,58.84
2018-08-19T04:28:41.244Z,60.23
2018-08-19T04:31:14.440Z,56.40
2018-08-19T04:33:45.405Z,58.32
2018-08-19T04:36:16.272Z,56.19
2018-08-19T04:38:45.154Z,56.69
2018-08-19T04:41:15.812Z,57.44
2018-08-19T04:43:45.240Z,55.39
2018-08-19T04:46:14.112Z,54.48
2018-08-19T04:48:47.334Z,55.30
2018-08-19T04:51:16.208Z,56.56
2018-08-19T04:53:45.104Z,53.18
2018-08-19T04:56:15.314Z,55.32
2018-08-19T04:58:44.095Z,56.56
2018-08-19T05:01:13.606Z,54.90
2018-08-19T05:03:46.073Z,54.30
2018-08-19T05:06:15.125Z,53.84
2018-08-19T05:08:44.037Z,54.12
2018-08-19T05:11:12.910Z,55.37
2018-08-19T05:13:41.763Z,54.51
2018-08-19T05:16:10.648Z,55.26
2018-08-19T05:18:39.568Z,55.41
2018-08-19T05:21:16.283Z,56.07
2018-08-19T05:23:45.771Z,57.90
2018-08-19T05:26:14.788Z,56.00
2018-08-19T05:28:49.412Z,54.36
2018-08-19T05:31:18.211Z,55.30
2018-08-19T05:33:47.009Z,55.07
2018-08-19T05:36:17.454Z,53.36
2018-08-19T05:38:46.723Z,54.61
2018-08-19T05:41:15.545Z,53.13
2018-08-19T05:43:45.765Z,53.69
2018-08-19T05:46:14.579Z,52.89
2018-08-19T05:48:43.574Z,53.74
2018-08-19T05:51:13.675Z,51.67
2018-08-19T05:53:49.398Z,52.31
2018-08-19T05:56:19.474Z,50.58
2018-08-19T05:58:48.350Z,50.57
2018-08-19T06:01:22.308Z,51.49
2018-08-19T06:03:51.148Z,50.62
2018-08-19T06:06:20.062Z,50.75
2018-08-19T06:08:50.214Z,48.22
2018-08-19T06:11:19.065Z,48.05
2018-08-19T06:13:47.920Z,48.66
2018-08-19T06:16:16.823Z,50.18
2018-08-19T06:18:45.664Z,49.22
2018-08-19T06:21:14.498Z,46.61
2018-08-19T06:23:43.402Z,48.84
2018-08-19T06:26:13.108Z,46.49
2018-08-19T06:28:41.925Z,47.74
2018-08-19T06:31:10.934Z,47.52
2018-08-19T06:33:39.716Z,46.53
2018-08-19T06:36:09.185Z,47.18
2018-08-19T06:38:39.425Z,46.55
2018-08-19T06:41:08.275Z,45.56
2018-08-19T06:43:37.081Z,45.41
2018-08-19T06:46:05.956Z,45.48
2018-08-19T06:48:34.758Z,45.65
2018-08-19T06:51:04.843Z,46.51
2018-08-19T06:53:35.084Z,46.92
2018-08-19T06:56:03.903Z,46.20
2018-08-19T06:58:32.722Z,46.72
2018-08-19T07:01:03.689Z,45.93
2018-08-19T07:03:32.794Z,45.15
2018-08-19T07:06:10.508Z,44.50
2018-08-19T07:08:39.459Z,44.63
2018-08-19T07:11:08.293Z,44.31
2018-08-19T07:13:38.414Z,43.77
2018-08-19T07:16:07.340Z,44.63
2018-08-19T07:18:36.313Z,42.90
2018-08-19T07:21:05.732Z,40.39
2018-08-19T07:23:34.578Z,42.40
2018-08-19T07:26:03.491Z,41.14
2018-08-19T07:28:33.670Z,40.80
2018-08-19T07:31:02.516Z,40.77
2018-08-19T07:33:31.331Z,42.54
2018-08-19T07:36:01.597Z,41.44
2018-08-19T07:38:30.400Z,40.84
2018-08-19T07:40:59.187Z,42.42
2018-08-19T07:43:28.117Z,41.07
2018-08-19T07:45:56.970Z,41.92
2018-08-19T07:48:25.794Z,41.83
2018-08-19T07:50:55.917Z,41.50
2018-08-19T07:53:24.743Z,42.75
2018-08-19T07:55:53.569Z,41.74
2018-08-19T07:58:34.628Z,41.42
2018-08-19T08:01:03.461Z,41.58
2018-08-19T08:03:32.272Z,41.78
2018-08-19T08:06:02.400Z,41.29
2018-08-19T08:08:32.542Z,41.02
2018-08-19T08:11:01.389Z,41.31
2018-08-19T08:13:30.229Z,42.05
2018-08-19T08:15:59.155Z,41.99
2018-08-19T08:18:27.979Z,41.86
2018-08-19T08:21:09.332Z,41.67
2018-08-19T08:23:39.403Z,40.79
2018-08-19T08:26:08.316Z,40.93
2018-08-19T08:28:37.243Z,40.94
2018-08-19T08:31:09.567Z,41.17
2018-08-19T08:33:40.346Z,40.78
2018-08-19T08:36:10.299Z,40.52
2018-08-19T08:38:39.432Z,40.92
2018-08-19T08:41:08.278Z,40.54
2018-08-19T08:43:38.541Z,40.11
2018-08-19T08:46:07.401Z,39.65
2018-08-19T08:48:36.594Z,40.73
2018-08-19T08:51:05.499Z,39.47
2018-08-19T08:53:38.220Z,40.40
2018-08-19T08:56:08.929Z,40.55
2018-08-19T08:58:37.822Z,40.51
2018-08-19T09:01:06.699Z,40.86
2018-08-19T09:03:35.628Z,40.68
2018-08-19T09:06:04.993Z,39.64
2018-08-19T09:08:33.870Z,41.62
2018-08-19T09:11:04.212Z,41.71
2018-08-19T09:13:34.281Z,42.36
2018-08-19T09:16:03.084Z,41.96
2018-08-19T09:18:31.932Z,41.31
2018-08-19T09:21:00.817Z,42.33
2018-08-19T09:23:29.756Z,42.01
2018-08-19T09:25:58.533Z,41.72
2018-08-19T09:28:27.375Z,41.03
2018-08-19T09:30:56.178Z,41.60
2018-08-19T09:33:24.970Z,40.28
2018-08-19T09:35:53.818Z,41.47
2018-08-19T09:38:23.709Z,40.89
2018-08-19T09:40:53.026Z,41.11
2018-08-19T09:43:21.800Z,40.96
2018-08-19T09:45:50.632Z,39.78
2018-08-19T09:48:19.558Z,41.14
2018-08-19T09:50:48.464Z,41.03
2018-08-19T09:53:17.329Z,40.58
2018-08-19T09:56:17.280Z,41.03
2018-08-19T09:58:50.187Z,41.40
2018-08-19T10:01:51.371Z,41.21
2018-08-19T10:04:23.122Z,40.97
2018-08-19T10:07:17.735Z,41.07
2018-08-19T10:09:47.802Z,40.94
2018-08-19T10:12:17.329Z,40.58
2018-08-19T10:14:46.112Z,40.22
2018-08-19T10:17:15.000Z,40.08
2018-08-19T10:19:43.804Z,38.12
2018-08-19T10:22:12.682Z,39.20
2018-08-19T10:24:41.515Z,40.35
2018-08-19T10:27:10.515Z,41.71
2018-08-19T10:29:39.353Z,41.07
2018-08-19T10:32:08.228Z,39.48
2018-08-19T10:34:37.713Z,39.94
2018-08-19T10:37:08.261Z,39.08
2018-08-19T10:39:37.064Z,37.13
2018-08-19T10:42:19.166Z,37.34
2018-08-19T10:44:50.442Z,37.34
2018-08-19T10:47:20.296Z,37.33
2018-08-19T10:49:58.401Z,36.04
2018-08-19T10:52:28.730Z,37.06
2018-08-19T10:54:59.047Z,37.41
2018-08-19T10:57:29.234Z,37.39
2018-08-19T10:59:59.256Z,37.85
2018-08-19T11:02:28.128Z,37.64
2018-08-19T11:04:59.226Z,39.04
2018-08-19T11:07:28.177Z,39.26
2018-08-19T11:10:13.240Z,40.65
2018-08-19T11:12:42.063Z,42.41
2018-08-19T11:15:26.134Z,43.37
2018-08-19T11:17:54.993Z,42.92
2018-08-19T11:20:28.975Z,44.78
2018-08-19T11:22:58.915Z,46.08
2018-08-19T11:25:28.520Z,46.08
2018-08-19T11:27:58.057Z,45.44
2018-08-19T11:30:26.900Z,44.88
2018-08-19T11:32:55.727Z,45.33
2018-08-19T11:35:33.685Z,44.13
2018-08-19T11:38:02.577Z,44.93
2018-08-19T11:40:31.368Z,45.68
2018-08-19T11:43:00.224Z,46.39
2018-08-19T11:45:29.010Z,47.38
2018-08-19T11:48:03.208Z,47.16
2018-08-19T11:50:32.094Z,48.36
2018-08-19T11:53:00.964Z,47.77
2018-08-19T11:55:29.843Z,48.28
2018-08-19T11:57:58.674Z,48.97
2018-08-19T12:00:31.601Z,48.46
2018-08-19T12:03:00.759Z,49.43
2018-08-19T12:05:29.625Z,48.90
2018-08-19T12:08:01.000Z,47.97
2018-08-19T12:10:29.844Z,48.38
2018-08-19T12:13:00.092Z,47.50
2018-08-19T12:15:28.873Z,49.72
2018-08-19T12:17:57.669Z,50.21
2018-08-19T12:20:34.553Z,50.39
2018-08-19T12:23:03.393Z,48.49
2018-08-19T12:25:32.214Z,50.24
2018-08-19T12:28:01.089Z,49.93
2018-08-19T12:30:32.421Z,50.90
2018-08-19T12:33:12.280Z,50.07
2018-08-19T12:35:42.535Z,48.94
2018-08-19T12:38:16.825Z,49.03
2018-08-19T12:40:48.081Z,46.12
2018-08-19T12:43:16.958Z,45.92
2018-08-19T12:45:46.172Z,46.02
2018-08-19T12:48:15.040Z,43.64
2018-08-19T12:51:05.281Z,43.37
2018-08-19T12:53:36.559Z,44.55
2018-08-19T12:56:05.417Z,45.50
2018-08-19T12:58:34.217Z,42.44
2018-08-19T13:01:03.096Z,42.82
2018-08-19T13:03:31.929Z,43.95
2018-08-19T13:06:08.556Z,44.62
2018-08-19T13:08:37.369Z,45.32
2018-08-19T13:11:07.604Z,45.71
2018-08-19T13:13:36.476Z,44.64
2018-08-19T13:16:05.244Z,45.59
2018-08-19T13:18:40.324Z,48.27
2018-08-19T13:21:14.220Z,46.34
2018-08-19T13:23:43.153Z,49.21
2018-08-19T13:26:11.992Z,50.94
2018-08-19T13:28:44.457Z,49.71
2018-08-19T13:31:15.712Z,50.70
2018-08-19T13:33:44.599Z,54.86
2018-08-19T13:36:13.425Z,52.16
2018-08-19T13:38:42.290Z,48.39
2018-08-19T13:41:11.233Z,49.49
2018-08-19T13:43:40.043Z,46.89
2018-08-19T13:46:10.295Z,45.46
2018-08-19T13:48:39.081Z,42.56
2018-08-19T13:51:08.163Z,43.66
2018-08-19T13:53:37.023Z,45.57
2018-08-19T13:56:05.825Z,48.29
2018-08-19T13:58:34.693Z,49.19
2018-08-19T14:01:03.605Z,53.09
2018-08-19T14:03:32.440Z,54.09
2018-08-19T14:06:01.470Z,55.30
2018-08-19T14:08:30.320Z,56.17
2018-08-19T14:10:59.204Z,55.22
2018-08-19T14:13:28.004Z,57.30
2018-08-19T14:15:58.098Z,57.85
2018-08-19T14:18:26.897Z,58.62
2018-08-19T14:20:55.701Z,57.81
2018-08-19T14:23:24.559Z,59.92
2018-08-19T14:25:53.502Z,59.45
2018-08-19T14:28:23.205Z,58.41
2018-08-19T14:30:52.274Z,58.62
2018-08-19T14:33:20.980Z,59.47
2018-08-19T14:35:49.776Z,58.55
2018-08-19T14:38:18.576Z,57.94
2018-08-19T14:40:47.448Z,58.79
2018-08-19T14:43:16.268Z,58.95
2018-08-19T14:45:45.148Z,57.73
2018-08-19T14:48:13.994Z,58.92
2018-08-19T14:50:45.743Z,59.49
2018-08-19T14:53:14.620Z,60.21
2018-08-19T14:55:43.438Z,59.12
2018-08-19T14:58:13.725Z,59.34
2018-08-19T15:00:42.541Z,59.20
2018-08-19T15:03:11.365Z,59.00
2018-08-19T15:05:40.362Z,58.57
2018-08-19T15:08:23.520Z,59.19
2018-08-19T15:10:56.426Z,57.94
2018-08-19T15:13:25.281Z,59.60
2018-08-19T15:15:54.089Z,59.81
2018-08-19T15:18:22.861Z,58.89
2018-08-19T15:20:51.681Z,59.04
2018-08-19T15:23:21.332Z,59.73
2018-08-19T15:25:50.266Z,60.34
2018-08-19T15:28:19.395Z,62.52
2018-08-19T15:30:48.297Z,61.94
2018-08-19T15:33:17.503Z,62.34
2018-08-19T15:35:46.237Z,62.58
2018-08-19T15:38:16.412Z,63.47
2018-08-19T15:40:47.654Z,64.19
2018-08-19T15:43:16.531Z,65.19
2018-08-19T15:45:47.046Z,62.78
2018-08-19T15:48:15.922Z,62.51
2018-08-19T15:50:44.815Z,62.38
2018-08-19T15:53:13.750Z,61.44
2018-08-19T15:55:42.589Z,61.05
2018-08-19T15:58:11.460Z,59.84
2018-08-19T16:00:41.698Z,59.62
2018-08-19T16:03:12.708Z,59.41
2018-08-19T16:05:41.545Z,59.28
2018-08-19T16:08:11.716Z,59.04
2018-08-19T16:10:41.984Z,58.34
2018-08-19T16:13:11.936Z,59.25
2018-08-19T16:15:40.828Z,59.39
2018-08-19T16:18:09.855Z,58.87
2018-08-19T16:20:38.701Z,59.47
2018-08-19T16:23:08.976Z,59.35
2018-08-19T16:25:37.797Z,58.74
2018-08-19T16:28:06.803Z,59.32
2018-08-19T16:30:35.777Z,59.29
2018-08-19T16:33:04.622Z,59.98
2018-08-19T16:35:33.572Z,60.45
2018-08-19T16:38:03.820Z,60.30
2018-08-19T16:40:32.906Z,60.44
2018-08-19T16:43:01.792Z,58.82
2018-08-19T16:45:30.718Z,59.68
2018-08-19T16:47:59.607Z,58.73
2018-08-19T16:50:28.593Z,59.65
2018-08-19T16:52:57.409Z,58.79
2018-08-19T16:55:26.270Z,58.64
2018-08-19T16:57:55.202Z,59.18
2018-08-19T17:00:24.094Z,57.99
2018-08-19T17:02:53.870Z,56.63
2018-08-19T17:05:32.552Z,57.58
2018-08-19T17:08:01.404Z,57.31
2018-08-19T17:10:30.597Z,57.32
2018-08-19T17:12:59.633Z,56.88
2018-08-19T17:15:28.809Z,56.86
2018-08-19T17:17:57.769Z,57.85
2018-08-19T17:20:27.820Z,57.56
2018-08-19T17:22:56.636Z,57.65
2018-08-19T17:25:25.473Z,58.39
2018-08-19T17:27:54.336Z,57.75
2018-08-19T17:30:23.223Z,58.22
2018-08-19T17:32:59.695Z,58.63
2018-08-19T17:35:28.560Z,58.62
2018-08-19T17:37:57.454Z,58.70
2018-08-19T17:40:26.405Z,58.64
2018-08-19T17:42:56.544Z,58.36
2018-08-19T17:45:25.495Z,59.10
2018-08-19T17:47:54.736Z,59.12
2018-08-19T17:50:28.860Z,59.28
2018-08-19T17:52:59.167Z,59.07
2018-08-19T17:55:28.177Z,59.36
2018-08-19T17:57:58.561Z,59.59
2018-08-19T18:00:27.413Z,59.96
2018-08-19T18:02:57.525Z,60.86
2018-08-19T18:05:27.860Z,60.42
2018-08-19T18:07:56.946Z,60.53
2018-08-19T18:10:25.875Z,61.58
2018-08-19T18:12:54.761Z,61.82
2018-08-19T18:15:23.650Z,62.46
2018-08-19T18:18:02.941Z,62.99
2018-08-19T18:20:39.166Z,63.05
2018-08-19T18:23:14.984Z,63.82
2018-08-19T18:25:47.798Z,64.26
2018-08-19T18:28:22.685Z,64.92
2018-08-19T18:31:07.989Z,64.18
2018-08-19T18:33:50.959Z,64.82
2018-08-19T18:36:21.290Z,65.45
2018-08-19T18:38:50.270Z,65.10
2018-08-19T18:41:25.276Z,65.48
2018-08-19T18:44:00.976Z,65.45
2018-08-19T18:46:30.127Z,65.58
2018-08-19T18:49:19.560Z,65.65
2018-08-19T18:51:50.733Z,66.03
2018-08-19T18:54:30.573Z,66.25
2018-08-19T18:57:00.537Z,66.07
2018-08-19T18:59:29.524Z,66.15
2018-08-19T19:02:00.526Z,66.19
2018-08-19T19:04:29.536Z,66.41
2018-08-19T19:06:58.415Z,66.74
2018-08-19T19:09:37.300Z,66.93
2018-08-19T19:12:06.180Z,67.53
2018-08-19T19:14:35.172Z,67.65
2018-08-19T19:17:03.991Z,67.91
2018-08-19T19:19:36.859Z,67.65
2018-08-19T19:22:05.782Z,67.60
2018-08-19T19:24:40.324Z,66.75
2018-08-19T19:27:09.849Z,67.80
2018-08-19T19:29:38.635Z,67.46
2018-08-19T19:32:16.397Z,68.07
2018-08-19T19:34:45.205Z,67.77
2018-08-19T19:37:14.197Z,67.40
2018-08-19T19:39:43.089Z,67.91
2018-08-19T19:42:13.022Z,67.80
2018-08-19T19:44:41.850Z,66.95
2018-08-19T19:47:11.046Z,67.19
2018-08-19T19:49:48.126Z,67.55
2018-08-19T19:52:18.380Z,67.90
2018-08-19T19:54:47.170Z,67.29
2018-08-19T19:57:15.992Z,67.79
2018-08-19T19:59:46.302Z,67.33
2018-08-19T20:02:19.292Z,67.70
2018-08-19T20:04:49.405Z,67.71
2018-08-19T20:07:18.267Z,68.05
2018-08-19T20:09:47.164Z,67.64
2018-08-19T20:12:30.564Z,68.16
2018-08-19T20:15:01.633Z,67.94
2018-08-19T20:17:30.538Z,69.94
2018-08-19T20:19:59.437Z,70.37
2018-08-19T20:22:28.352Z,70.32
2018-08-19T20:24:57.200Z,69.83
2018-08-19T20:27:26.134Z,70.06
2018-08-19T20:29:55.407Z,68.98
2018-08-19T20:32:24.375Z,69.39
2018-08-19T20:34:53.195Z,69.38
2018-08-19T20:37:25.902Z,68.89
2018-08-19T20:39:55.276Z,69.96
2018-08-19T20:42:24.324Z,70.05
2018-08-19T20:44:53.276Z,69.19
2018-08-19T20:47:22.105Z,69.44
2018-08-19T20:49:51.307Z,69.54
2018-08-19T20:52:29.662Z,69.84
2018-08-19T20:54:58.548Z,70.05
2018-08-19T20:57:27.400Z,69.60
2018-08-19T20:59:56.260Z,69.61
2018-08-19T21:02:25.091Z,69.80
2018-08-19T21:04:54.740Z,69.87
2018-08-19T21:07:23.645Z,69.91
2018-08-19T21:09:52.501Z,69.38
2018-08-19T21:12:21.390Z,69.52
2018-08-19T21:14:50.294Z,68.87
2018-08-19T21:17:19.196Z,69.47
2018-08-19T21:19:48.152Z,70.13
2018-08-19T21:22:18.320Z,69.28
2018-08-19T21:24:47.197Z,69.68
2018-08-19T21:27:17.465Z,69.64
2018-08-19T21:29:46.407Z,69.96
2018-08-19T21:32:15.199Z,70.29
2018-08-19T21:34:44.065Z,70.21
2018-08-19T21:37:14.952Z,70.41
2018-08-19T21:39:43.865Z,70.31
2018-08-19T21:42:12.685Z,70.63
2018-08-19T21:44:41.516Z,70.44
2018-08-19T21:47:10.396Z,70.75
2018-08-19T21:49:39.464Z,70.12
2018-08-19T21:52:08.294Z,70.67
2018-08-19T21:54:37.129Z,70.92
2018-08-19T21:57:05.995Z,71.08
2018-08-19T21:59:35.074Z,70.97
2018-08-19T22:02:04.009Z,72.24
2018-08-19T22:04:33.050Z,73.01
2018-08-19T22:07:02.057Z,73.01
2018-08-19T22:09:36.786Z,73.24
2018-08-19T22:12:06.986Z,73.74
2018-08-19T22:14:35.841Z,74.57
2018-08-19T22:17:09.926Z,74.31
2018-08-19T22:19:40.591Z,73.92
2018-08-19T22:22:09.925Z,72.98
2018-08-19T22:24:38.838Z,72.94
2018-08-19T22:27:12.889Z,72.73
2018-08-19T22:29:41.701Z,73.39
2018-08-19T22:32:10.584Z,73.11
2018-08-19T22:34:39.432Z,72.99
2018-08-19T22:37:08.350Z,73.87
2018-08-19T22:39:37.272Z,73.96
2018-08-19T22:42:06.148Z,74.26
2018-08-19T22:44:34.933Z,74.62
2018-08-19T22:47:03.754Z,74.57
2018-08-19T22:49:32.600Z,74.47
2018-08-19T22:52:09.585Z,74.37
2018-08-19T22:54:38.439Z,74.21
2018-08-19T22:57:07.348Z,74.72
2018-08-19T22:59:36.149Z,74.29
2018-08-19T23:02:05.007Z,73.89
2018-08-19T23:04:33.836Z,74.49
2018-08-19T23:07:02.773Z,74.02
2018-08-19T23:09:31.612Z,74.97
2018-08-19T23:12:00.488Z,75.15
2018-08-19T23:14:40.164Z,75.94
2018-08-19T23:17:10.723Z,76.47
2018-08-19T23:19:39.539Z,76.44
2018-08-19T23:22:08.388Z,77.18
2018-08-19T23:24:37.274Z,77.25
2018-08-19T23:27:06.110Z,77.50
2018-08-19T23:29:34.934Z,77.62
2018-08-19T23:32:04.874Z,77.64
2018-08-19T23:34:33.772Z,77.58
2018-08-19T23:37:02.716Z,76.89
2018-08-19T23:39:31.559Z,77.18
2018-08-19T23:42:00.469Z,76.63
2018-08-19T23:44:29.350Z,76.59
2018-08-19T23:46:58.233Z,77.18
2018-08-19T23:49:32.055Z,76.48
2018-08-19T23:52:00.975Z,76.76
2018-08-19T23:54:29.841Z,77.29
2018-08-19T23:56:58.661Z,76.74
2018-08-19T23:59:31.561Z,77.42
